Αναφορές Αεροδρομίων

 

KSJC - San Jose, California, USA
Distance from station: ΒΑ 14km
Ενημερώθηκε: 11/08/2022 20:53
Few Clouds
Few Clouds
 Ανεμος από ΒΔ
Ανεμος: ΒΔ 11 km/h
Θερμοκρασία: 22°C
Σημείο Δρόσου: 14°C
Υγρασία: 61%
Βαρόμετρο: 1019 hPa
Clouds: Few Clouds
Visibility: 16 km
Cloud details: Few Clouds 30 m
Few Clouds 914 m
2022/08/11 17:53 KSJC 111753Z 31006KT 10SM FEW001 FEW030 22/14 A3009 RMK AO2 SLP187 FU FEW001 T02170139 10217 20161 50002
KNUQ - Moffett Nas/Mtn, California, USA
Distance from station: Β 14km
Ενημερώθηκε: 11/08/2022 20:55
Αίθριος
Αίθριος
 Ανεμος από ΒΒΔ
Ανεμος: ΒΒΔ 11 km/h, Ριπή: 20 km/h
Θερμοκρασία: 20°C
Σημείο Δρόσου: 14°C
Υγρασία: 69%
Βαρόμετρο: 1019 hPa
Clouds: Αίθριος
Visibility: 16 km
2022/08/11 17:55 KNUQ 111755Z AUTO 34006G11KT 10SM CLR 20/14 A3009 RMK AO2
 
KPAO - Palo Alto, California, USA
Distance from station: ΒΒΔ 23km
Ενημερώθηκε: 11/08/2022 19:47
NOT Current
Μερικώς νεφελώδης
Μερικώς νεφελώδης
 Ανεμος από varies
Ανεμος: varies 9 km/h
Θερμοκρασία: 21°C
Σημείο Δρόσου: 14°C
Υγρασία: 64%
Βαρόμετρο: 1019.3 hPa
Clouds: Μερικώς νεφελώδης
Visibility: 16 km
Cloud details: Μερικώς νεφελώδης 457 m
2022/08/11 16:47 KPAO 111647Z VRB05KT 10SM SCT015 21/14 A3010
KRHV - San Jose/Reid, California, USA
Distance from station: ΑΒΑ 19km
Ενημερώθηκε: 11/08/2022 20:47
Αίθριος
Αίθριος
 Ανεμος από ΒΒΔ
Ανεμος: ΒΒΔ 9 km/h
Θερμοκρασία: 21°C
Σημείο Δρόσου: 13°C
Υγρασία: 60%
Βαρόμετρο: 1019 hPa
Clouds: Αίθριος
Visibility: 16 km
2022/08/11 17:47 KRHV 111747Z 33005KT 10SM SKC 21/13 A3009
 
KOAK - Oakland, California, USA
Distance from station: ΒΒΔ 50km
Ενημερώθηκε: 11/08/2022 20:53
Σχεδόν νεφελώδης
Σχεδόν νεφελώδης
 Ανεμος από Δ
Ανεμος: Δ 19 km/h
Θερμοκρασία: 19°C
Σημείο Δρόσου: 14°C
Υγρασία: 73%
Βαρόμετρο: 1019.3 hPa
Clouds: Σχεδόν νεφελώδης
Visibility: 16 km
Cloud details: Σχεδόν νεφελώδης 457 m
Σχεδόν νεφελώδης 6096 m
2022/08/11 17:53 KOAK 111753Z 26010KT 10SM BKN015 BKN200 19/14 A3010 RMK AO2 SLP193 T01940139 10200 20167 53006
KSQL - San Carlos Airpo, California, USA
Distance from station: ΒΔ 34km
Ενημερώθηκε: 11/08/2022 20:58
Few Clouds
Few Clouds
 Ανεμος από ΔΝΔ
Ανεμος: ΔΝΔ 11 km/h
Θερμοκρασία: 22°C
Σημείο Δρόσου: 14°C
Υγρασία: 61%
Βαρόμετρο: 1019 hPa
Clouds: Few Clouds
Visibility: 16 km
Cloud details: Few Clouds 488 m
2022/08/11 17:58 KSQL 111758Z 25006KT 10SM FEW016 22/14 A3009
 
KSFO - San Francisco, California, USA
Distance from station: ΒΔ 49km
Ενημερώθηκε: 11/08/2022 20:56
Μερικώς νεφελώδης
Μερικώς νεφελώδης
 Ανεμος από Δ
Ανεμος: Δ 28 km/h, Ριπή: 39 km/h
Θερμοκρασία: 21°C
Σημείο Δρόσου: 13°C
Υγρασία: 60%
Βαρόμετρο: 1019 hPa
Clouds: Μερικώς νεφελώδης
Visibility: 16 km
Cloud details: Few Clouds 183 m
Μερικώς νεφελώδης 518 m
2022/08/11 17:56 KSFO 111756Z 28015G21KT 10SM FEW006 SCT017 21/13 A3009 RMK AO2 SLP188 T02060133 10206 20167 51004
KE16 - San Martin, California, USA
Distance from station: ΑΝΑ 43km
Ενημερώθηκε: 11/08/2022 20:55
Αίθριος
Αίθριος
 Ανεμος από Β
Ανεμος: Β 19 km/h
Θερμοκρασία: 23°C
Σημείο Δρόσου: 13°C
Υγρασία: 53%
Βαρόμετρο: 1019 hPa
Clouds: Αίθριος
Visibility: 16 km
2022/08/11 17:55 KE16 111755Z AUTO 35010KT 10SM CLR 23/13 A3009 RMK AO2 PWINO PNO
 
KWVI - Watsonville, California, USA
Distance from station: ΝΝΑ 44km
Ενημερώθηκε: 11/08/2022 20:53
Αίθριος
Αίθριος
 Ανεμος από ΝΝΔ
Ανεμος: ΝΝΔ 15 km/h
Θερμοκρασία: 23°C
Σημείο Δρόσου: 14°C
Υγρασία: 57%
Βαρόμετρο: 1018.6 hPa
Clouds: Αίθριος
Visibility: 16 km
2022/08/11 17:53 KWVI 111753Z AUTO 21008KT 10SM CLR 23/14 A3008 RMK AO2 SLP185 T02280144 10228 20111 51001
KHAF - Half Moon Bay, California, USA
Distance from station: ΔΒΔ 50km
Ενημερώθηκε: 11/08/2022 20:55
Συννεφιά
Συννεφιά
 Ανεμος από ΒΒΔ
Ανεμος: ΒΒΔ 22 km/h
Θερμοκρασία: 18°C
Σημείο Δρόσου: 15°C
Υγρασία: 83%
Βαρόμετρο: 1019.6 hPa
Clouds: Συννεφιά
Visibility: 13 km
Cloud details: Συννεφιά 488 m
2022/08/11 17:55 KHAF 111755Z AUTO 34012KT 8SM OVC016 18/15 A3011 RMK AO2
 
KHWD - Hayward, California, USA
Distance from station: Β 44km
Ενημερώθηκε: 11/08/2022 20:54
Μερικώς νεφελώδης
Μερικώς νεφελώδης
 Ανεμος από Δ
Ανεμος: Δ 17 km/h
Θερμοκρασία: 20°C
Σημείο Δρόσου: 14°C
Υγρασία: 69%
Βαρόμετρο: 1019 hPa
Clouds: Μερικώς νεφελώδης
Visibility: 16 km
Cloud details: Μερικώς νεφελώδης 488 m
2022/08/11 17:54 KHWD 111754Z 27009KT 10SM SCT016 20/14 A3009 RMK AO2 SLP199 T02000144 10206 20172 51006
KLVK - Livermore, California, USA
Distance from station: ΒΒΑ 51km
Ενημερώθηκε: 11/08/2022 20:53
Αίθριος
Αίθριος
 Ανεμος από varies
Ανεμος: varies 11 km/h
Θερμοκρασία: 23°C
Σημείο Δρόσου: 13°C
Υγρασία: 53%
Βαρόμετρο: 1018.3 hPa
Clouds: Αίθριος
Visibility: 16 km
2022/08/11 17:53 KLVK 111753Z VRB06KT 10SM CLR 23/13 A3007 RMK AO2 SLP179 T02280128 10228 20139 50000